sensor_id;sensor_type;location;lat;lon;timestamp;P1;durP1;ratioP1;P2;durP2;ratioP2
3865;SDS011;1948;53.250;10.412;2023-01-28T00:01:13;1.87;;;1.47;;
3865;SDS011;1948;53.250;10.412;2023-01-28T00:03:45;2.73;;;1.20;;
3865;SDS011;1948;53.250;10.412;2023-01-28T00:06:16;1.10;;;1.10;;
3865;SDS011;1948;53.250;10.412;2023-01-28T00:08:48;1.23;;;1.23;;
3865;SDS011;1948;53.250;10.412;2023-01-28T00:11:15;2.03;;;1.33;;
3865;SDS011;1948;53.250;10.412;2023-01-28T00:13:42;3.13;;;1.53;;
3865;SDS011;1948;53.250;10.412;2023-01-28T00:16:12;1.40;;;1.30;;
3865;SDS011;1948;53.250;10.412;2023-01-28T00:18:41;2.20;;;1.80;;
3865;SDS011;1948;53.250;10.412;2023-01-28T00:21:10;1.97;;;1.87;;
3865;SDS011;1948;53.250;10.412;2023-01-28T00:23:42;1.70;;;1.60;;
3865;SDS011;1948;53.250;10.412;2023-01-28T00:26:13;1.43;;;1.33;;
3865;SDS011;1948;53.250;10.412;2023-01-28T00:28:41;6.20;;;1.30;;
3865;SDS011;1948;53.250;10.412;2023-01-28T00:33:48;1.83;;;1.30;;
3865;SDS011;1948;53.250;10.412;2023-01-28T00:36:17;2.50;;;1.50;;
3865;SDS011;1948;53.250;10.412;2023-01-28T00:38:51;1.53;;;1.43;;
3865;SDS011;1948;53.250;10.412;2023-01-28T00:41:26;1.40;;;1.40;;
3865;SDS011;1948;53.250;10.412;2023-01-28T00:43:55;2.00;;;1.33;;
3865;SDS011;1948;53.250;10.412;2023-01-28T00:46:24;2.87;;;1.50;;
3865;SDS011;1948;53.250;10.412;2023-01-28T00:48:56;1.80;;;1.27;;
3865;SDS011;1948;53.250;10.412;2023-01-28T00:51:23;4.53;;;1.00;;
3865;SDS011;1948;53.250;10.412;2023-01-28T00:53:50;1.10;;;1.10;;
3865;SDS011;1948;53.250;10.412;2023-01-28T00:56:19;2.90;;;1.10;;
3865;SDS011;1948;53.250;10.412;2023-01-28T00:58:53;5.80;;;1.13;;
3865;SDS011;1948;53.250;10.412;2023-01-28T01:01:24;2.10;;;1.40;;
3865;SDS011;1948;53.250;10.412;2023-01-28T01:03:53;3.03;;;1.83;;
3865;SDS011;1948;53.250;10.412;2023-01-28T01:06:29;2.00;;;1.70;;
3865;SDS011;1948;53.250;10.412;2023-01-28T01:09:06;1.90;;;1.80;;
3865;SDS011;1948;53.250;10.412;2023-01-28T01:11:36;3.63;;;2.80;;
3865;SDS011;1948;53.250;10.412;2023-01-28T01:14:03;1.70;;;1.53;;
3865;SDS011;1948;53.250;10.412;2023-01-28T01:16:34;1.70;;;1.60;;
3865;SDS011;1948;53.250;10.412;2023-01-28T01:19:05;1.90;;;1.80;;
3865;SDS011;1948;53.250;10.412;2023-01-28T01:21:35;1.73;;;1.63;;
3865;SDS011;1948;53.250;10.412;2023-01-28T01:24:02;1.80;;;1.40;;
3865;SDS011;1948;53.250;10.412;2023-01-28T01:26:34;1.57;;;1.50;;
3865;SDS011;1948;53.250;10.412;2023-01-28T01:29:01;3.43;;;1.90;;
3865;SDS011;1948;53.250;10.412;2023-01-28T01:31:30;2.50;;;1.20;;
3865;SDS011;1948;53.250;10.412;2023-01-28T01:33:57;2.53;;;1.73;;
3865;SDS011;1948;53.250;10.412;2023-01-28T01:36:27;1.57;;;1.47;;
3865;SDS011;1948;53.250;10.412;2023-01-28T01:38:54;1.40;;;1.40;;
3865;SDS011;1948;53.250;10.412;2023-01-28T01:41:26;1.00;;;1.00;;
3865;SDS011;1948;53.250;10.412;2023-01-28T01:43:58;23.13;;;1.50;;
3865;SDS011;1948;53.250;10.412;2023-01-28T01:49:17;1.43;;;1.43;;
3865;SDS011;1948;53.250;10.412;2023-01-28T01:54:56;1.07;;;1.00;;
3865;SDS011;1948;53.250;10.412;2023-01-28T01:57:31;1.10;;;1.10;;
3865;SDS011;1948;53.250;10.412;2023-01-28T02:00:00;2.43;;;1.10;;
3865;SDS011;1948;53.250;10.412;2023-01-28T02:02:40;2.00;;;1.20;;
3865;SDS011;1948;53.250;10.412;2023-01-28T02:05:12;3.23;;;2.93;;
3865;SDS011;1948;53.250;10.412;2023-01-28T02:07:44;2.87;;;2.70;;
3865;SDS011;1948;53.250;10.412;2023-01-28T02:10:14;9.00;;;3.80;;
3865;SDS011;1948;53.250;10.412;2023-01-28T02:12:42;4.93;;;3.40;;
3865;SDS011;1948;53.250;10.412;2023-01-28T02:15:18;4.40;;;4.00;;
3865;SDS011;1948;53.250;10.412;2023-01-28T02:17:47;3.70;;;3.40;;
3865;SDS011;1948;53.250;10.412;2023-01-28T02:20:24;2.33;;;1.40;;
3865;SDS011;1948;53.250;10.412;2023-01-28T02:32:52;4.53;;;1.67;;
3865;SDS011;1948;53.250;10.412;2023-01-28T02:38:28;2.80;;;1.23;;
3865;SDS011;1948;53.250;10.412;2023-01-28T02:41:07;1.23;;;1.10;;
3865;SDS011;1948;53.250;10.412;2023-01-28T02:43:52;1.03;;;1.03;;
3865;SDS011;1948;53.250;10.412;2023-01-28T02:46:40;0.93;;;0.93;;
3865;SDS011;1948;53.250;10.412;2023-01-28T02:49:29;2.43;;;1.43;;
3865;SDS011;1948;53.250;10.412;2023-01-28T03:04:20;2.00;;;1.90;;
3865;SDS011;1948;53.250;10.412;2023-01-28T03:06:54;1.30;;;1.30;;
3865;SDS011;1948;53.250;10.412;2023-01-28T03:09:29;0.87;;;0.87;;
3865;SDS011;1948;53.250;10.412;2023-01-28T03:14:57;2.50;;;1.70;;
3865;SDS011;1948;53.250;10.412;2023-01-28T03:18:10;1.90;;;1.30;;
3865;SDS011;1948;53.250;10.412;2023-01-28T03:21:09;1.53;;;1.43;;
3865;SDS011;1948;53.250;10.412;2023-01-28T03:24:11;2.30;;;0.97;;
3865;SDS011;1948;53.250;10.412;2023-01-28T03:30:06;1.37;;;1.30;;
3865;SDS011;1948;53.250;10.412;2023-01-28T03:33:07;3.60;;;1.07;;
3865;SDS011;1948;53.250;10.412;2023-01-28T03:35:54;1.63;;;1.63;;
3865;SDS011;1948;53.250;10.412;2023-01-28T03:38:40;1.27;;;1.17;;
3865;SDS011;1948;53.250;10.412;2023-01-28T03:41:19;2.47;;;1.20;;
3865;SDS011;1948;53.250;10.412;2023-01-28T03:43:48;5.47;;;1.50;;
3865;SDS011;1948;53.250;10.412;2023-01-28T03:46:16;1.33;;;1.33;;
3865;SDS011;1948;53.250;10.412;2023-01-28T03:48:43;1.30;;;1.30;;
3865;SDS011;1948;53.250;10.412;2023-01-28T03:51:11;1.20;;;1.20;;
3865;SDS011;1948;53.250;10.412;2023-01-28T03:53:38;1.43;;;1.33;;
3865;SDS011;1948;53.250;10.412;2023-01-28T03:56:08;0.90;;;0.90;;
3865;SDS011;1948;53.250;10.412;2023-01-28T03:58:43;6.70;;;1.40;;
3865;SDS011;1948;53.250;10.412;2023-01-28T04:01:19;1.53;;;1.37;;
3865;SDS011;1948;53.250;10.412;2023-01-28T04:03:49;0.93;;;0.93;;
3865;SDS011;1948;53.250;10.412;2023-01-28T04:06:16;1.30;;;1.20;;
3865;SDS011;1948;53.250;10.412;2023-01-28T04:08:43;6.53;;;1.13;;
3865;SDS011;1948;53.250;10.412;2023-01-28T04:11:16;9.33;;;1.40;;
3865;SDS011;1948;53.250;10.412;2023-01-28T04:13:47;1.40;;;1.40;;
3865;SDS011;1948;53.250;10.412;2023-01-28T04:16:19;1.90;;;1.00;;
3865;SDS011;1948;53.250;10.412;2023-01-28T04:18:48;1.30;;;1.20;;
3865;SDS011;1948;53.250;10.412;2023-01-28T04:21:15;1.17;;;1.17;;
3865;SDS011;1948;53.250;10.412;2023-01-28T04:23:42;1.73;;;1.20;;
3865;SDS011;1948;53.250;10.412;2023-01-28T04:26:11;2.10;;;1.00;;
3865;SDS011;1948;53.250;10.412;2023-01-28T04:28:42;1.37;;;1.37;;
3865;SDS011;1948;53.250;10.412;2023-01-28T04:31:09;1.10;;;1.00;;
3865;SDS011;1948;53.250;10.412;2023-01-28T04:33:38;3.13;;;1.50;;
3865;SDS011;1948;53.250;10.412;2023-01-28T04:36:08;1.30;;;1.30;;
3865;SDS011;1948;53.250;10.412;2023-01-28T04:38:35;5.50;;;1.20;;
3865;SDS011;1948;53.250;10.412;2023-01-28T04:41:02;1.73;;;1.63;;
3865;SDS011;1948;53.250;10.412;2023-01-28T04:43:29;1.30;;;1.20;;
3865;SDS011;1948;53.250;10.412;2023-01-28T04:45:58;1.50;;;1.40;;
3865;SDS011;1948;53.250;10.412;2023-01-28T04:48:25;4.93;;;1.57;;
3865;SDS011;1948;53.250;10.412;2023-01-28T04:50:55;1.77;;;1.27;;
3865;SDS011;1948;53.250;10.412;2023-01-28T04:53:22;1.10;;;1.10;;
3865;SDS011;1948;53.250;10.412;2023-01-28T04:55:52;11.63;;;2.00;;
3865;SDS011;1948;53.250;10.412;2023-01-28T04:58:19;1.40;;;1.40;;
3865;SDS011;1948;53.250;10.412;2023-01-28T05:00:46;1.90;;;1.63;;
3865;SDS011;1948;53.250;10.412;2023-01-28T05:03:22;1.40;;;1.30;;
3865;SDS011;1948;53.250;10.412;2023-01-28T05:05:49;1.30;;;1.23;;
3865;SDS011;1948;53.250;10.412;2023-01-28T05:08:19;1.40;;;1.40;;
3865;SDS011;1948;53.250;10.412;2023-01-28T05:10:46;1.50;;;1.50;;
3865;SDS011;1948;53.250;10.412;2023-01-28T05:13:13;2.17;;;2.07;;
3865;SDS011;1948;53.250;10.412;2023-01-28T05:15:40;3.93;;;1.60;;
3865;SDS011;1948;53.250;10.412;2023-01-28T05:18:07;2.37;;;0.90;;
3865;SDS011;1948;53.250;10.412;2023-01-28T05:20:34;5.30;;;1.33;;
3865;SDS011;1948;53.250;10.412;2023-01-28T05:23:01;1.40;;;1.30;;
3865;SDS011;1948;53.250;10.412;2023-01-28T05:25:31;1.70;;;1.70;;
3865;SDS011;1948;53.250;10.412;2023-01-28T05:27:57;2.30;;;1.57;;
3865;SDS011;1948;53.250;10.412;2023-01-28T05:30:27;1.30;;;1.30;;
3865;SDS011;1948;53.250;10.412;2023-01-28T05:32:57;1.30;;;1.30;;
3865;SDS011;1948;53.250;10.412;2023-01-28T05:35:24;1.53;;;1.43;;
3865;SDS011;1948;53.250;10.412;2023-01-28T05:37:53;1.50;;;1.50;;
3865;SDS011;1948;53.250;10.412;2023-01-28T05:40:20;4.53;;;1.57;;
3865;SDS011;1948;53.250;10.412;2023-01-28T05:42:47;1.40;;;1.30;;
3865;SDS011;1948;53.250;10.412;2023-01-28T05:45:16;1.20;;;1.20;;
3865;SDS011;1948;53.250;10.412;2023-01-28T05:47:43;5.23;;;1.50;;
3865;SDS011;1948;53.250;10.412;2023-01-28T05:50:12;1.60;;;1.23;;
3865;SDS011;1948;53.250;10.412;2023-01-28T05:52:45;1.63;;;1.53;;
3865;SDS011;1948;53.250;10.412;2023-01-28T05:55:12;2.00;;;1.10;;
3865;SDS011;1948;53.250;10.412;2023-01-28T05:57:46;2.20;;;2.10;;
3865;SDS011;1948;53.250;10.412;2023-01-28T06:00:16;8.50;;;1.80;;
3865;SDS011;1948;53.250;10.412;2023-01-28T06:02:43;5.10;;;1.20;;
3865;SDS011;1948;53.250;10.412;2023-01-28T06:05:13;1.40;;;1.40;;
3865;SDS011;1948;53.250;10.412;2023-01-28T06:07:43;1.73;;;1.63;;
3865;SDS011;1948;53.250;10.412;2023-01-28T06:10:11;2.30;;;1.30;;
3865;SDS011;1948;53.250;10.412;2023-01-28T06:12:43;2.10;;;2.03;;
3865;SDS011;1948;53.250;10.412;2023-01-28T06:15:10;1.50;;;1.50;;
3865;SDS011;1948;53.250;10.412;2023-01-28T06:17:39;3.63;;;1.50;;
3865;SDS011;1948;53.250;10.412;2023-01-28T06:20:07;1.40;;;1.40;;
3865;SDS011;1948;53.250;10.412;2023-01-28T06:22:35;2.10;;;1.67;;
3865;SDS011;1948;53.250;10.412;2023-01-28T06:25:02;2.07;;;1.87;;
3865;SDS011;1948;53.250;10.412;2023-01-28T06:27:29;3.10;;;1.53;;
3865;SDS011;1948;53.250;10.412;2023-01-28T06:30:01;1.33;;;1.33;;
3865;SDS011;1948;53.250;10.412;2023-01-28T06:32:28;1.30;;;1.30;;
3865;SDS011;1948;53.250;10.412;2023-01-28T06:34:55;5.73;;;2.03;;
3865;SDS011;1948;53.250;10.412;2023-01-28T06:37:22;1.63;;;1.63;;
3865;SDS011;1948;53.250;10.412;2023-01-28T06:39:51;1.77;;;1.50;;
3865;SDS011;1948;53.250;10.412;2023-01-28T06:42:22;1.90;;;1.90;;
3865;SDS011;1948;53.250;10.412;2023-01-28T06:44:49;1.83;;;1.83;;
3865;SDS011;1948;53.250;10.412;2023-01-28T06:47:19;2.47;;;1.70;;
3865;SDS011;1948;53.250;10.412;2023-01-28T06:49:49;3.23;;;1.63;;
3865;SDS011;1948;53.250;10.412;2023-01-28T06:52:15;4.37;;;1.70;;
3865;SDS011;1948;53.250;10.412;2023-01-28T06:54:47;1.40;;;1.40;;
3865;SDS011;1948;53.250;10.412;2023-01-28T06:57:14;1.97;;;1.97;;
3865;SDS011;1948;53.250;10.412;2023-01-28T06:59:41;1.80;;;1.70;;
3865;SDS011;1948;53.250;10.412;2023-01-28T07:02:10;1.63;;;1.63;;
3865;SDS011;1948;53.250;10.412;2023-01-28T07:04:37;5.63;;;1.93;;
3865;SDS011;1948;53.250;10.412;2023-01-28T07:07:07;4.80;;;2.30;;
3865;SDS011;1948;53.250;10.412;2023-01-28T07:09:36;2.20;;;2.10;;
3865;SDS011;1948;53.250;10.412;2023-01-28T07:12:09;6.53;;;1.90;;
3865;SDS011;1948;53.250;10.412;2023-01-28T07:14:36;4.33;;;1.90;;
3865;SDS011;1948;53.250;10.412;2023-01-28T07:17:03;2.03;;;1.93;;
3865;SDS011;1948;53.250;10.412;2023-01-28T07:19:32;1.20;;;1.20;;
3865;SDS011;1948;53.250;10.412;2023-01-28T07:22:01;2.30;;;2.07;;
3865;SDS011;1948;53.250;10.412;2023-01-28T07:24:30;2.50;;;2.40;;
3865;SDS011;1948;53.250;10.412;2023-01-28T07:26:58;8.80;;;2.13;;
3865;SDS011;1948;53.250;10.412;2023-01-28T07:29:27;2.07;;;1.97;;
3865;SDS011;1948;53.250;10.412;2023-01-28T07:31:54;3.73;;;3.00;;
3865;SDS011;1948;53.250;10.412;2023-01-28T07:34:21;3.03;;;2.73;;
3865;SDS011;1948;53.250;10.412;2023-01-28T07:36:48;4.83;;;2.77;;
3865;SDS011;1948;53.250;10.412;2023-01-28T07:39:18;2.60;;;2.40;;
3865;SDS011;1948;53.250;10.412;2023-01-28T07:41:45;7.77;;;2.20;;
3865;SDS011;1948;53.250;10.412;2023-01-28T07:44:15;4.13;;;3.40;;
3865;SDS011;1948;53.250;10.412;2023-01-28T07:46:44;3.17;;;1.93;;
3865;SDS011;1948;53.250;10.412;2023-01-28T07:49:14;2.23;;;1.83;;
3865;SDS011;1948;53.250;10.412;2023-01-28T07:51:40;1.60;;;1.60;;
3865;SDS011;1948;53.250;10.412;2023-01-28T07:54:07;6.43;;;1.97;;
3865;SDS011;1948;53.250;10.412;2023-01-28T07:56:34;3.03;;;2.13;;
3865;SDS011;1948;53.250;10.412;2023-01-28T07:59:01;1.77;;;1.77;;
3865;SDS011;1948;53.250;10.412;2023-01-28T08:01:29;2.30;;;2.20;;
3865;SDS011;1948;53.250;10.412;2023-01-28T08:03:59;1.90;;;1.73;;
3865;SDS011;1948;53.250;10.412;2023-01-28T08:06:30;1.67;;;1.60;;
3865;SDS011;1948;53.250;10.412;2023-01-28T08:09:03;6.43;;;1.70;;
3865;SDS011;1948;53.250;10.412;2023-01-28T08:11:31;2.10;;;1.90;;
3865;SDS011;1948;53.250;10.412;2023-01-28T08:14:06;2.77;;;1.97;;
3865;SDS011;1948;53.250;10.412;2023-01-28T08:16:38;3.23;;;1.70;;
3865;SDS011;1948;53.250;10.412;2023-01-28T08:19:05;2.87;;;2.30;;
3865;SDS011;1948;53.250;10.412;2023-01-28T08:21:36;2.30;;;1.97;;
3865;SDS011;1948;53.250;10.412;2023-01-28T08:24:08;3.07;;;2.60;;
3865;SDS011;1948;53.250;10.412;2023-01-28T08:26:35;2.53;;;2.30;;
3865;SDS011;1948;53.250;10.412;2023-01-28T08:29:02;2.30;;;2.20;;
3865;SDS011;1948;53.250;10.412;2023-01-28T08:31:31;2.20;;;2.10;;
3865;SDS011;1948;53.250;10.412;2023-01-28T08:33:59;2.70;;;2.50;;
3865;SDS011;1948;53.250;10.412;2023-01-28T08:36:30;2.87;;;2.60;;
3865;SDS011;1948;53.250;10.412;2023-01-28T08:38:57;2.97;;;2.77;;
3865;SDS011;1948;53.250;10.412;2023-01-28T08:41:24;10.33;;;2.70;;
3865;SDS011;1948;53.250;10.412;2023-01-28T08:43:54;2.80;;;2.60;;
3865;SDS011;1948;53.250;10.412;2023-01-28T08:46:25;2.90;;;2.70;;
3865;SDS011;1948;53.250;10.412;2023-01-28T08:48:54;5.90;;;2.73;;
3865;SDS011;1948;53.250;10.412;2023-01-28T08:51:24;2.20;;;2.10;;
3865;SDS011;1948;53.250;10.412;2023-01-28T08:53:53;3.10;;;2.90;;
3865;SDS011;1948;53.250;10.412;2023-01-28T08:56:23;3.50;;;2.60;;
3865;SDS011;1948;53.250;10.412;2023-01-28T08:58:50;2.93;;;2.83;;
3865;SDS011;1948;53.250;10.412;2023-01-28T09:01:20;2.63;;;2.50;;
3865;SDS011;1948;53.250;10.412;2023-01-28T09:03:47;2.07;;;1.97;;
3865;SDS011;1948;53.250;10.412;2023-01-28T09:06:14;2.80;;;2.70;;
3865;SDS011;1948;53.250;10.412;2023-01-28T09:08:41;2.17;;;2.03;;
3865;SDS011;1948;53.250;10.412;2023-01-28T09:11:08;2.57;;;2.37;;
3865;SDS011;1948;53.250;10.412;2023-01-28T09:13:35;5.67;;;3.00;;
3865;SDS011;1948;53.250;10.412;2023-01-28T09:16:05;3.13;;;2.40;;
3865;SDS011;1948;53.250;10.412;2023-01-28T09:18:32;2.63;;;1.77;;
3865;SDS011;1948;53.250;10.412;2023-01-28T09:21:02;2.60;;;2.20;;
3865;SDS011;1948;53.250;10.412;2023-01-28T09:23:34;3.50;;;2.20;;
3865;SDS011;1948;53.250;10.412;2023-01-28T09:26:05;2.93;;;2.57;;
3865;SDS011;1948;53.250;10.412;2023-01-28T09:28:34;5.60;;;2.70;;
3865;SDS011;1948;53.250;10.412;2023-01-28T09:31:09;2.20;;;2.10;;
3865;SDS011;1948;53.250;10.412;2023-01-28T09:33:39;3.40;;;2.60;;
3865;SDS011;1948;53.250;10.412;2023-01-28T09:36:07;1.70;;;1.60;;
3865;SDS011;1948;53.250;10.412;2023-01-28T09:38:39;3.80;;;2.10;;
3865;SDS011;1948;53.250;10.412;2023-01-28T09:41:22;4.47;;;1.63;;
3865;SDS011;1948;53.250;10.412;2023-01-28T09:47:07;1.93;;;1.83;;
3865;SDS011;1948;53.250;10.412;2023-01-28T09:49:46;4.47;;;1.90;;
3865;SDS011;1948;53.250;10.412;2023-01-28T09:52:17;2.37;;;1.87;;
3865;SDS011;1948;53.250;10.412;2023-01-28T09:54:50;3.33;;;2.53;;
3865;SDS011;1948;53.250;10.412;2023-01-28T09:59:58;2.60;;;1.70;;
3865;SDS011;1948;53.250;10.412;2023-01-28T10:11:31;2.33;;;2.00;;
3865;SDS011;1948;53.250;10.412;2023-01-28T10:14:22;1.90;;;1.70;;
3865;SDS011;1948;53.250;10.412;2023-01-28T10:17:12;2.30;;;2.20;;
3865;SDS011;1948;53.250;10.412;2023-01-28T10:20:47;3.03;;;2.70;;
3865;SDS011;1948;53.250;10.412;2023-01-28T10:25:51;3.87;;;3.63;;
3865;SDS011;1948;53.250;10.412;2023-01-28T10:28:23;3.47;;;3.47;;
3865;SDS011;1948;53.250;10.412;2023-01-28T10:30:53;4.67;;;4.47;;
3865;SDS011;1948;53.250;10.412;2023-01-28T10:36:00;4.40;;;4.10;;
3865;SDS011;1948;53.250;10.412;2023-01-28T10:38:27;6.03;;;4.40;;
3865;SDS011;1948;53.250;10.412;2023-01-28T10:41:00;6.07;;;4.43;;
3865;SDS011;1948;53.250;10.412;2023-01-28T10:43:39;4.50;;;4.20;;
3865;SDS011;1948;53.250;10.412;2023-01-28T10:46:09;4.87;;;4.53;;
3865;SDS011;1948;53.250;10.412;2023-01-28T10:48:57;5.43;;;4.87;;
3865;SDS011;1948;53.250;10.412;2023-01-28T10:54:22;5.47;;;5.30;;
3865;SDS011;1948;53.250;10.412;2023-01-28T10:57:02;5.00;;;4.60;;
3865;SDS011;1948;53.250;10.412;2023-01-28T10:59:35;4.33;;;4.13;;
3865;SDS011;1948;53.250;10.412;2023-01-28T11:05:13;5.27;;;4.57;;
3865;SDS011;1948;53.250;10.412;2023-01-28T11:07:47;8.10;;;5.20;;
3865;SDS011;1948;53.250;10.412;2023-01-28T11:10:35;5.40;;;4.77;;
3865;SDS011;1948;53.250;10.412;2023-01-28T11:13:11;4.80;;;4.60;;
3865;SDS011;1948;53.250;10.412;2023-01-28T11:15:48;5.13;;;4.93;;
3865;SDS011;1948;53.250;10.412;2023-01-28T11:18:51;4.50;;;4.10;;
3865;SDS011;1948;53.250;10.412;2023-01-28T11:21:30;7.23;;;4.63;;
3865;SDS011;1948;53.250;10.412;2023-01-28T11:24:00;4.37;;;4.17;;
3865;SDS011;1948;53.250;10.412;2023-01-28T11:26:31;4.73;;;4.43;;
3865;SDS011;1948;53.250;10.412;2023-01-28T11:29:02;6.33;;;4.00;;
3865;SDS011;1948;53.250;10.412;2023-01-28T11:31:30;4.30;;;4.20;;
3865;SDS011;1948;53.250;10.412;2023-01-28T11:34:10;6.43;;;5.60;;
3865;SDS011;1948;53.250;10.412;2023-01-28T11:36:52;4.10;;;3.90;;
3865;SDS011;1948;53.250;10.412;2023-01-28T11:39:28;5.20;;;4.80;;
3865;SDS011;1948;53.250;10.412;2023-01-28T11:42:09;12.07;;;5.27;;
3865;SDS011;1948;53.250;10.412;2023-01-28T11:44:47;6.70;;;4.60;;
3865;SDS011;1948;53.250;10.412;2023-01-28T11:50:21;4.70;;;4.40;;
3865;SDS011;1948;53.250;10.412;2023-01-28T11:56:05;4.20;;;3.90;;
3865;SDS011;1948;53.250;10.412;2023-01-28T12:08:02;6.20;;;4.40;;
3865;SDS011;1948;53.250;10.412;2023-01-28T12:22:49;6.57;;;4.50;;
3865;SDS011;1948;53.250;10.412;2023-01-28T12:37:27;4.37;;;3.93;;
3865;SDS011;1948;53.250;10.412;2023-01-28T12:46:37;3.93;;;3.63;;
3865;SDS011;1948;53.250;10.412;2023-01-28T12:49:24;4.87;;;4.30;;
3865;SDS011;1948;53.250;10.412;2023-01-28T12:52:03;4.57;;;4.03;;
3865;SDS011;1948;53.250;10.412;2023-01-28T12:57:49;4.40;;;4.00;;
3865;SDS011;1948;53.250;10.412;2023-01-28T13:03:01;4.10;;;4.00;;
3865;SDS011;1948;53.250;10.412;2023-01-28T13:05:33;7.93;;;4.50;;
3865;SDS011;1948;53.250;10.412;2023-01-28T13:08:25;5.37;;;4.97;;
3865;SDS011;1948;53.250;10.412;2023-01-28T13:10:54;5.07;;;4.67;;
3865;SDS011;1948;53.250;10.412;2023-01-28T13:13:37;4.50;;;4.10;;
3865;SDS011;1948;53.250;10.412;2023-01-28T13:16:09;4.20;;;3.77;;
3865;SDS011;1948;53.250;10.412;2023-01-28T13:26:41;5.73;;;4.83;;
3865;SDS011;1948;53.250;10.412;2023-01-28T13:32:00;5.27;;;4.20;;
3865;SDS011;1948;53.250;10.412;2023-01-28T13:34:35;4.97;;;4.57;;
3865;SDS011;1948;53.250;10.412;2023-01-28T13:39:56;4.80;;;4.53;;
3865;SDS011;1948;53.250;10.412;2023-01-28T13:42:56;9.03;;;4.57;;
3865;SDS011;1948;53.250;10.412;2023-01-28T13:45:29;6.63;;;5.10;;
3865;SDS011;1948;53.250;10.412;2023-01-28T13:50:57;4.60;;;4.30;;
3865;SDS011;1948;53.250;10.412;2023-01-28T13:56:20;8.10;;;3.93;;
3865;SDS011;1948;53.250;10.412;2023-01-28T14:13:16;5.03;;;4.57;;
3865;SDS011;1948;53.250;10.412;2023-01-28T14:19:00;3.97;;;3.87;;
3865;SDS011;1948;53.250;10.412;2023-01-28T14:21:33;5.37;;;4.10;;
3865;SDS011;1948;53.250;10.412;2023-01-28T14:24:01;5.63;;;5.17;;
3865;SDS011;1948;53.250;10.412;2023-01-28T14:26:37;6.67;;;5.00;;
3865;SDS011;1948;53.250;10.412;2023-01-28T14:31:42;6.30;;;5.13;;
3865;SDS011;1948;53.250;10.412;2023-01-28T14:36:47;7.97;;;5.00;;
3865;SDS011;1948;53.250;10.412;2023-01-28T14:39:27;4.60;;;4.20;;
3865;SDS011;1948;53.250;10.412;2023-01-28T14:41:58;6.97;;;5.03;;
3865;SDS011;1948;53.250;10.412;2023-01-28T14:44:35;11.37;;;6.87;;
3865;SDS011;1948;53.250;10.412;2023-01-28T14:58:43;4.73;;;4.33;;
3865;SDS011;1948;53.250;10.412;2023-01-28T15:01:21;5.50;;;5.00;;
3865;SDS011;1948;53.250;10.412;2023-01-28T15:03:53;4.87;;;4.60;;
3865;SDS011;1948;53.250;10.412;2023-01-28T15:06:23;6.33;;;4.40;;
3865;SDS011;1948;53.250;10.412;2023-01-28T15:09:07;5.10;;;4.60;;
3865;SDS011;1948;53.250;10.412;2023-01-28T15:11:38;7.23;;;4.70;;
3865;SDS011;1948;53.250;10.412;2023-01-28T15:14:15;12.53;;;6.23;;
3865;SDS011;1948;53.250;10.412;2023-01-28T15:16:52;11.07;;;5.70;;
3865;SDS011;1948;53.250;10.412;2023-01-28T15:19:33;6.10;;;5.10;;
3865;SDS011;1948;53.250;10.412;2023-01-28T15:22:06;5.93;;;5.40;;
3865;SDS011;1948;53.250;10.412;2023-01-28T15:24:36;7.03;;;5.33;;
3865;SDS011;1948;53.250;10.412;2023-01-28T15:27:17;6.20;;;5.80;;
3865;SDS011;1948;53.250;10.412;2023-01-28T15:29:56;7.13;;;6.63;;
3865;SDS011;1948;53.250;10.412;2023-01-28T15:32:26;7.57;;;7.00;;
3865;SDS011;1948;53.250;10.412;2023-01-28T15:34:59;11.47;;;7.60;;
3865;SDS011;1948;53.250;10.412;2023-01-28T15:37:38;9.60;;;7.70;;
3865;SDS011;1948;53.250;10.412;2023-01-28T15:40:05;13.43;;;8.53;;
3865;SDS011;1948;53.250;10.412;2023-01-28T15:42:36;9.57;;;8.53;;
3865;SDS011;1948;53.250;10.412;2023-01-28T15:45:03;10.83;;;8.87;;
3865;SDS011;1948;53.250;10.412;2023-01-28T15:47:44;13.80;;;10.90;;
3865;SDS011;1948;53.250;10.412;2023-01-28T15:50:17;14.37;;;10.63;;
3865;SDS011;1948;53.250;10.412;2023-01-28T15:52:49;18.30;;;11.07;;
3865;SDS011;1948;53.250;10.412;2023-01-28T15:55:41;20.17;;;12.20;;
3865;SDS011;1948;53.250;10.412;2023-01-28T16:03:40;20.37;;;11.33;;
3865;SDS011;1948;53.250;10.412;2023-01-28T16:06:11;17.73;;;10.53;;
3865;SDS011;1948;53.250;10.412;2023-01-28T16:08:51;16.93;;;11.30;;
3865;SDS011;1948;53.250;10.412;2023-01-28T16:11:23;24.00;;;13.37;;
3865;SDS011;1948;53.250;10.412;2023-01-28T16:13:54;17.60;;;11.83;;
3865;SDS011;1948;53.250;10.412;2023-01-28T16:16:26;17.97;;;11.90;;
3865;SDS011;1948;53.250;10.412;2023-01-28T16:18:57;19.10;;;12.37;;
3865;SDS011;1948;53.250;10.412;2023-01-28T16:21:34;17.70;;;12.07;;
3865;SDS011;1948;53.250;10.412;2023-01-28T16:27:04;28.63;;;12.50;;
3865;SDS011;1948;53.250;10.412;2023-01-28T16:29:50;22.70;;;13.83;;
3865;SDS011;1948;53.250;10.412;2023-01-28T16:35:00;23.50;;;13.40;;
3865;SDS011;1948;53.250;10.412;2023-01-28T16:37:28;21.53;;;13.27;;
3865;SDS011;1948;53.250;10.412;2023-01-28T16:39:55;19.63;;;13.37;;
3865;SDS011;1948;53.250;10.412;2023-01-28T16:42:26;18.20;;;13.63;;
3865;SDS011;1948;53.250;10.412;2023-01-28T16:44:53;22.50;;;13.43;;
3865;SDS011;1948;53.250;10.412;2023-01-28T16:47:20;22.17;;;13.90;;
3865;SDS011;1948;53.250;10.412;2023-01-28T16:49:47;25.50;;;13.93;;
3865;SDS011;1948;53.250;10.412;2023-01-28T16:52:17;27.07;;;14.77;;
3865;SDS011;1948;53.250;10.412;2023-01-28T16:54:46;18.63;;;13.57;;
3865;SDS011;1948;53.250;10.412;2023-01-28T16:57:17;18.43;;;14.40;;
3865;SDS011;1948;53.250;10.412;2023-01-28T16:59:45;19.50;;;13.60;;
3865;SDS011;1948;53.250;10.412;2023-01-28T17:02:13;22.17;;;13.97;;
3865;SDS011;1948;53.250;10.412;2023-01-28T17:04:41;23.43;;;15.47;;
3865;SDS011;1948;53.250;10.412;2023-01-28T17:07:08;16.77;;;13.80;;
3865;SDS011;1948;53.250;10.412;2023-01-28T17:09:35;22.07;;;14.70;;
3865;SDS011;1948;53.250;10.412;2023-01-28T17:12:02;23.17;;;14.03;;
3865;SDS011;1948;53.250;10.412;2023-01-28T17:14:32;21.57;;;13.70;;
3865;SDS011;1948;53.250;10.412;2023-01-28T17:16:59;21.87;;;15.13;;
3865;SDS011;1948;53.250;10.412;2023-01-28T17:19:27;27.80;;;15.23;;
3865;SDS011;1948;53.250;10.412;2023-01-28T17:21:58;17.50;;;14.33;;
3865;SDS011;1948;53.250;10.412;2023-01-28T17:24:28;22.50;;;15.30;;
3865;SDS011;1948;53.250;10.412;2023-01-28T17:26:57;17.30;;;13.87;;
3865;SDS011;1948;53.250;10.412;2023-01-28T17:29:27;31.03;;;16.13;;
3865;SDS011;1948;53.250;10.412;2023-01-28T17:31:57;23.17;;;14.47;;
3865;SDS011;1948;53.250;10.412;2023-01-28T17:34:29;19.80;;;14.13;;
3865;SDS011;1948;53.250;10.412;2023-01-28T17:36:59;23.30;;;14.90;;
3865;SDS011;1948;53.250;10.412;2023-01-28T17:39:34;26.17;;;16.20;;
3865;SDS011;1948;53.250;10.412;2023-01-28T17:42:08;25.23;;;16.27;;
3865;SDS011;1948;53.250;10.412;2023-01-28T17:44:40;29.37;;;16.20;;
3865;SDS011;1948;53.250;10.412;2023-01-28T17:47:06;24.07;;;15.53;;
3865;SDS011;1948;53.250;10.412;2023-01-28T17:49:33;25.10;;;15.50;;
3865;SDS011;1948;53.250;10.412;2023-01-28T17:52:05;33.27;;;16.57;;
3865;SDS011;1948;53.250;10.412;2023-01-28T17:54:33;25.77;;;17.00;;
3865;SDS011;1948;53.250;10.412;2023-01-28T17:57:01;23.40;;;16.90;;
3865;SDS011;1948;53.250;10.412;2023-01-28T17:59:28;25.33;;;16.57;;
3865;SDS011;1948;53.250;10.412;2023-01-28T18:01:58;29.40;;;17.30;;
3865;SDS011;1948;53.250;10.412;2023-01-28T18:04:25;26.27;;;16.77;;
3865;SDS011;1948;53.250;10.412;2023-01-28T18:06:55;26.60;;;16.90;;
3865;SDS011;1948;53.250;10.412;2023-01-28T18:09:22;26.70;;;17.73;;
3865;SDS011;1948;53.250;10.412;2023-01-28T18:11:51;30.13;;;17.20;;
3865;SDS011;1948;53.250;10.412;2023-01-28T18:14:20;28.43;;;17.03;;
3865;SDS011;1948;53.250;10.412;2023-01-28T18:16:47;29.03;;;18.00;;
3865;SDS011;1948;53.250;10.412;2023-01-28T18:19:21;29.87;;;17.97;;
3865;SDS011;1948;53.250;10.412;2023-01-28T18:21:50;27.40;;;17.93;;
3865;SDS011;1948;53.250;10.412;2023-01-28T18:24:20;32.60;;;18.00;;
3865;SDS011;1948;53.250;10.412;2023-01-28T18:26:50;31.07;;;18.27;;